Xunwu, China
Current Conditions -  °F | °C
As of 10:00 AM on Tuesday 21 Oct 2014 (Local Time) from ZGOW Reporting Station
Haze Haze  
Wind Chill: 81°   Ceiling: 6000
Heat Index: 84°   Visibility: 2.1mi
Dew Point: 70°   Wind: 2mph
Humidity: 70%   Direction: NA
Pressure: 30.03"   Gusts: NA
Location:  24.95°N, 115.65°E
Report Text: ZGOW 210200Z VRB01MPS 3500 HZ BKN060 27/21 Q1017 NOSIG
Loading
Personal Weather Stations






























Interactive Weather Map
Tropical Storm Tracking
New forecast layout! Learn more

10-Day Weather Forecast

Advertisements
Track Severe Weather on mobile